Time;durP1;ratioP1;P1;durP2;ratioP2;P2;SDS_P1;SDS_P2;PMS_P1;PMS_P2;Temp;Humidity;BMP_temperature;BMP_pressure;BME280_temperature;BME280_humidity;BME280_pressure;Samples;Min_cycle;Max_cycle;Signal;HPM_P1;HPM_P2
2022/01/28 00:02:12;;;;;;;2.70;1.00;;;;;;;1.11;96.03;98827.90;103730;1299;24267;-25
2022/01/28 00:04:38;;;;;;;3.10;1.80;;;;;;;0.87;97.55;98831.40;103852;1299;24213;-25
2022/01/28 00:07:04;;;;;;;18.60;2.00;;;;;;;0.98;97.28;98834.48;103818;1297;24237;-24
2022/01/28 00:09:29;;;;;;;2.30;1.10;;;;;;;1.30;96.19;98830.24;103825;1299;24156;-27
2022/01/28 00:11:55;;;;;;;2.60;2.10;;;;;;;1.12;96.51;98839.61;103876;1297;24325;-30
2022/01/28 00:14:29;;;;;;;3.90;2.30;;;;;;;1.30;95.81;98835.52;103839;1299;24310;-25
2022/01/28 00:39:11;;;;;;;2.60;2.00;;;;;;;1.80;92.49;98829.28;103811;1299;24311;-30
2022/01/28 00:41:37;;;;;;;5.30;2.10;;;;;;;2.17;90.94;98835.20;103831;1297;24289;-30
2022/01/28 00:44:03;;;;;;;2.60;1.30;;;;;;;2.09;91.02;98827.62;103866;1299;24292;-24
2022/01/28 00:46:29;;;;;;;1.50;0.80;;;;;;;2.14;90.55;98825.30;103873;1299;24246;-29
2022/01/28 00:48:56;;;;;;;5.70;2.60;;;;;;;1.82;91.84;98828.01;103873;1297;24156;-32
2022/01/28 00:51:22;;;;;;;11.00;1.80;;;;;;;1.93;91.93;98824.67;103907;1299;22645;-24
2022/01/28 00:53:48;;;;;;;2.60;1.00;;;;;;;1.87;92.65;98835.33;103937;1299;22492;-31
2022/01/28 00:56:14;;;;;;;2.10;0.90;;;;;;;2.15;91.40;98836.88;103899;1297;24431;-30
2022/01/28 00:58:39;;;;;;;2.10;0.50;;;;;;;1.92;92.33;98838.33;103878;1299;24308;-29
2022/01/28 01:01:05;;;;;;;2.30;0.90;;;;;;;1.91;92.50;98828.76;103983;1299;24219;-25
2022/01/28 01:03:32;;;;;;;4.20;0.40;;;;;;;2.09;92.69;98836.77;103847;1299;24369;-25
2022/01/28 01:05:58;;;;;;;4.20;1.00;;;;;;;1.74;94.82;98838.70;103841;1299;24201;-25
2022/01/28 01:08:24;;;;;;;0.70;0.50;;;;;;;1.81;95.46;98834.35;103898;1299;24265;-24
2022/01/28 01:10:52;;;;;;;4.00;0.70;;;;;;;1.68;97.04;98830.20;103883;1297;24345;-30
2022/01/28 01:13:17;;;;;;;2.80;0.60;;;;;;;1.65;97.39;98830.65;103928;1299;24410;-24
2022/01/28 01:15:47;;;;;;;3.40;0.70;;;;;;;1.56;98.57;98821.66;103741;1297;23840;-30
2022/01/28 01:18:21;;;;;;;3.50;1.10;;;;;;;1.78;98.16;98825.55;103896;1299;24210;-24
2022/01/28 01:28:11;;;;;;;7.60;0.90;;;;;;;2.13;96.32;98809.88;103861;1297;24266;-29
2022/01/28 01:30:40;;;;;;;5.90;1.50;;;;;;;2.25;93.86;98825.42;103915;1299;24172;-30
2022/01/28 01:33:07;;;;;;;11.60;0.70;;;;;;;2.28;92.65;98820.70;103940;1297;22964;-30
2022/01/28 01:35:32;;;;;;;0.90;0.30;;;;;;;2.09;92.54;98810.27;103861;1299;24246;-30
2022/01/28 01:37:59;;;;;;;0.90;0.20;;;;;;;2.07;92.05;98808.73;103887;1297;24299;-24
2022/01/28 01:40:31;;;;;;;0.90;0.40;;;;;;;1.89;93.17;98824.65;103799;1299;24222;-24
2022/01/28 01:45:51;;;;;;;0.60;0.30;;;;;;;1.80;94.56;98831.23;103937;1297;22506;-24
2022/01/28 01:53:10;;;;;;;1.90;0.80;;;;;;;1.48;98.82;98823.10;103686;1298;22509;-27
2022/01/28 01:55:35;;;;;;;6.80;1.10;;;;;;;1.75;97.04;98821.48;103886;1298;24179;-24
2022/01/28 01:58:01;;;;;;;2.60;1.10;;;;;;;1.51;97.81;98822.84;103891;1299;24325;-27
2022/01/28 02:00:27;;;;;;;6.50;0.60;;;;;;;1.55;97.98;98815.56;103905;1297;24303;-30
2022/01/28 02:02:53;;;;;;;11.00;0.90;;;;;;;1.63;97.77;98818.42;103983;1299;24184;-30
2022/01/28 02:05:19;;;;;;;7.00;1.50;;;;;;;1.89;95.82;98825.75;103917;1297;22516;-32
2022/01/28 02:07:46;;;;;;;7.30;0.80;;;;;;;1.82;95.26;98812.84;103857;1299;22555;-30
2022/01/28 02:10:12;;;;;;;0.60;0.20;;;;;;;2.00;94.99;98803.27;103936;1297;24170;-29
2022/01/28 02:12:44;;;;;;;6.80;0.90;;;;;;;2.14;92.97;98809.79;103890;1299;24153;-29
2022/01/28 02:15:09;;;;;;;4.10;0.50;;;;;;;2.21;91.64;98805.77;103895;1297;23933;-25
2022/01/28 02:17:35;;;;;;;3.70;1.00;;;;;;;1.96;92.22;98797.83;103874;1299;24262;-24
2022/01/28 02:20:01;;;;;;;3.80;0.40;;;;;;;2.19;91.12;98795.77;103879;1297;24279;-31
2022/01/28 02:22:27;;;;;;;4.60;0.70;;;;;;;2.35;90.12;98801.82;103911;1299;24249;-24
2022/01/28 02:24:53;;;;;;;1.70;0.20;;;;;;;2.01;90.56;98797.17;103842;1299;24245;-25
2022/01/28 02:27:18;;;;;;;13.10;1.20;;;;;;;2.29;90.12;98782.74;103955;1297;22815;-25
2022/01/28 02:29:45;;;;;;;2.30;0.60;;;;;;;2.42;88.70;98798.77;103920;1299;24216;-24
2022/01/28 02:32:12;;;;;;;5.10;0.60;;;;;;;2.20;89.60;98793.75;103851;1299;22627;-30
2022/01/28 02:34:39;;;;;;;2.10;0.60;;;;;;;2.28;89.26;98779.42;103823;1299;24246;-27
2022/01/28 02:37:05;;;;;;;2.30;0.80;;;;;;;2.34;88.72;98796.19;103922;1299;24413;-25
2022/01/28 02:39:31;;;;;;;5.40;1.00;;;;;;;2.05;90.23;98792.92;103917;1297;22623;-30
2022/01/28 02:42:06;;;;;;;6.20;0.60;;;;;;;2.32;89.72;98779.91;103925;1297;24201;-29
2022/01/28 02:47:03;;;;;;;3.40;0.70;;;;;;;2.39;88.89;98775.94;103957;1299;24225;-24
2022/01/28 02:49:34;;;;;;;2.00;0.90;;;;;;;2.32;89.08;98775.61;103928;1299;24216;-24
2022/01/28 02:52:02;;;;;;;4.40;1.10;;;;;;;1.90;91.03;98784.73;103933;1297;24171;-30
2022/01/28 02:54:27;;;;;;;5.60;1.70;;;;;;;1.92;91.10;98766.70;104011;1299;24329;-30
2022/01/28 02:56:59;;;;;;;3.80;1.20;;;;;;;2.07;90.56;98779.56;103843;1297;24239;-23
2022/01/28 02:59:25;;;;;;;5.70;0.90;;;;;;;1.95;90.87;98779.42;103917;1297;22758;-24
2022/01/28 03:01:50;;;;;;;4.50;0.90;;;;;;;1.96;91.77;98774.88;103914;1297;24347;-30
2022/01/28 03:04:48;;;;;;;2.80;0.80;;;;;;;1.94;91.89;98778.50;103707;1299;24316;-30
2022/01/28 03:07:04;;;;;;;8.40;0.50;;;;;;;1.80;92.39;98780.43;103897;1297;24245;-30
2022/01/28 03:09:48;;;;;;;19.20;1.30;;;;;;;1.92;91.74;98778.85;103918;1297;24268;-32
2022/01/28 03:12:20;;;;;;;6.60;1.30;;;;;;;1.89;92.18;98772.25;103944;1299;24216;-26
2022/01/28 03:17:38;;;;;;;3.40;0.90;;;;;;;2.03;91.84;98788.17;103942;1297;24171;-32
2022/01/28 03:20:29;;;;;;;4.00;0.40;;;;;;;1.93;92.45;98800.56;103905;1297;24192;-32
2022/01/28 03:22:48;;;;;;;13.90;1.80;;;;;;;1.68;94.10;98791.67;103955;1299;24170;-24
2022/01/28 03:25:14;;;;;;;5.40;1.40;;;;;;;1.92;93.72;98795.42;103712;1298;24429;-29
2022/01/28 03:30:10;;;;;;;3.60;1.00;;;;;;;1.88;93.30;98804.45;103952;1299;22621;-24
2022/01/28 03:32:35;;;;;;;4.50;0.90;;;;;;;1.64;94.82;98804.62;103922;1299;24441;-26
2022/01/28 03:35:03;;;;;;;4.70;1.10;;;;;;;1.94;94.05;98789.09;103911;1299;24268;-24
2022/01/28 03:37:29;;;;;;;2.10;0.60;;;;;;;1.90;93.64;98795.42;103873;1299;24457;-26
2022/01/28 03:39:55;;;;;;;1.70;0.90;;;;;;;2.00;93.42;98800.42;103898;1297;22646;-30
2022/01/28 03:42:21;;;;;;;2.60;0.70;;;;;;;1.75;94.12;98805.45;103872;1297;24261;-26
2022/01/28 03:44:46;;;;;;;1.90;0.50;;;;;;;1.63;95.48;98802.45;103904;1297;24481;-24
2022/01/28 03:47:12;;;;;;;4.70;1.20;;;;;;;1.85;95.18;98802.98;103861;1299;24324;-24
2022/01/28 03:49:38;;;;;;;2.90;0.90;;;;;;;1.89;94.37;98809.69;103866;1299;22741;-24
2022/01/28 03:52:04;;;;;;;9.50;1.60;;;;;;;1.93;94.24;98816.20;103886;1300;22626;-30
2022/01/28 03:54:30;;;;;;;2.40;0.60;;;;;;;2.10;93.22;98801.76;103883;1297;24219;-25
2022/01/28 03:56:55;;;;;;;2.40;0.50;;;;;;;1.84;94.24;98826.03;103951;1297;24215;-25
2022/01/28 03:59:21;;;;;;;2.90;1.00;;;;;;;1.90;94.00;98822.46;104005;1297;24306;-30
2022/01/28 04:01:49;;;;;;;9.00;1.50;;;;;;;1.77;94.46;98817.55;103733;1297;22506;-26
2022/01/28 04:05:39;;;;;;;3.80;1.20;;;;;;;1.71;95.55;98823.68;103953;1299;22502;-32
2022/01/28 04:12:00;;;;;;;6.40;1.60;;;;;;;1.53;96.16;98846.96;103853;1297;24360;-29
2022/01/28 04:19:38;;;;;;;8.50;1.50;;;;;;;1.74;94.72;98836.22;103674;1299;24422;-30
2022/01/28 04:22:04;;;;;;;1.70;0.80;;;;;;;1.81;95.21;98844.23;103861;1299;24300;-29
2022/01/28 04:24:30;;;;;;;11.20;1.70;;;;;;;1.84;94.98;98863.87;103895;1297;22509;-29
2022/01/28 04:26:58;;;;;;;3.30;1.50;;;;;;;1.75;95.14;98858.95;103896;1299;22616;-32
2022/01/28 04:29:24;;;;;;;9.20;1.50;;;;;;;1.85;94.92;98865.87;103851;1297;24250;-25
2022/01/28 04:31:50;;;;;;;3.70;0.80;;;;;;;1.71;95.26;98864.12;103897;1297;24266;-25
2022/01/28 04:34:16;;;;;;;11.50;1.70;;;;;;;1.75;95.60;98867.89;103884;1299;24501;-25
2022/01/28 04:36:54;;;;;;;8.70;2.00;;;;;;;1.90;94.67;98864.86;103951;1297;24344;-24
2022/01/28 04:39:29;;;;;;;10.20;2.30;;;;;;;1.81;95.27;98876.55;103937;1299;24284;-30
2022/01/28 04:44:54;;;;;;;7.80;2.40;;;;;;;1.88;94.86;98876.17;103880;1297;24273;-24
2022/01/28 04:47:30;;;;;;;4.40;1.50;;;;;;;1.91;94.82;98871.80;103863;1297;24183;-24
2022/01/28 04:50:08;;;;;;;9.50;2.20;;;;;;;1.89;94.48;98879.03;103882;1299;24200;-30
2022/01/28 04:53:00;;;;;;;4.10;1.30;;;;;;;1.95;94.05;98878.08;103876;1297;24200;-25
2022/01/28 05:08:20;;;;;;;11.80;2.20;;;;;;;1.92;93.38;98888.11;103882;1297;24367;-32
2022/01/28 05:11:07;;;;;;;7.00;1.70;;;;;;;2.22;92.30;98885.67;103939;1299;24193;-25
2022/01/28 05:16:55;;;;;;;4.00;1.20;;;;;;;2.21;91.38;98875.11;103886;1300;24220;-25
2022/01/28 05:28:42;;;;;;;3.30;0.70;;;;;;;2.43;90.02;98889.14;103929;1299;24331;-30
2022/01/28 05:31:08;;;;;;;3.40;1.20;;;;;;;2.47;89.47;98882.55;103911;1297;24145;-27
2022/01/28 05:33:34;;;;;;;19.00;2.80;;;;;;;2.53;89.49;98894.84;103809;1299;24288;-30
2022/01/28 05:35:59;;;;;;;10.50;1.40;;;;;;;2.35;89.72;98891.05;103783;1297;24220;-24
2022/01/28 05:38:25;;;;;;;9.10;2.20;;;;;;;2.51;88.81;98895.59;103824;1299;24183;-29
2022/01/28 05:40:51;;;;;;;8.60;2.20;;;;;;;2.50;88.45;98900.61;103928;1299;22520;-25
2022/01/28 05:43:16;;;;;;;6.30;2.70;;;;;;;2.53;87.91;98900.44;103798;1299;24381;-26
2022/01/28 05:45:42;;;;;;;24.40;1.80;;;;;;;2.58;87.35;98889.73;103904;1297;24187;-24
2022/01/28 05:48:07;;;;;;;5.10;1.80;;;;;;;2.38;87.84;98884.64;103889;1299;24326;-24
2022/01/28 05:50:33;;;;;;;5.60;2.00;;;;;;;2.45;87.46;98882.14;103893;1297;24334;-25
2022/01/28 05:53:01;;;;;;;9.10;1.00;;;;;;;2.54;87.19;98895.27;103817;1297;24299;-24
2022/01/28 05:55:27;;;;;;;5.60;1.40;;;;;;;2.53;86.57;98895.90;103856;1299;24166;-31
2022/01/28 05:57:52;;;;;;;5.10;1.50;;;;;;;2.54;86.62;98899.98;103911;1297;24467;-24
2022/01/28 06:00:19;;;;;;;4.60;1.40;;;;;;;2.72;85.56;98906.70;103759;1299;24293;-31
2022/01/28 06:02:45;;;;;;;4.90;1.70;;;;;;;2.58;85.84;98903.28;103904;1299;24261;-26
2022/01/28 06:05:12;;;;;;;6.70;0.80;;;;;;;2.74;85.16;98902.17;103913;1297;22640;-31
2022/01/28 06:07:41;;;;;;;8.30;1.60;;;;;;;2.64;85.43;98916.86;103859;1297;24182;-24
2022/01/28 06:10:09;;;;;;;9.70;2.60;;;;;;;2.75;84.35;98924.34;103810;1297;22517;-30
2022/01/28 06:12:40;;;;;;;10.20;1.30;;;;;;;2.70;85.12;98923.86;103903;1297;24301;-31
2022/01/28 06:15:06;;;;;;;5.80;1.60;;;;;;;2.64;85.17;98932.88;103956;1296;24174;-24
2022/01/28 06:17:32;;;;;;;7.50;1.50;;;;;;;2.90;84.40;98939.84;103856;1297;22522;-24
2022/01/28 06:19:58;;;;;;;4.90;1.60;;;;;;;2.78;84.73;98947.42;103877;1297;24310;-30
2022/01/28 06:22:23;;;;;;;10.60;1.10;;;;;;;2.55;85.36;98935.58;103917;1299;24214;-24
2022/01/28 06:24:49;;;;;;;19.20;2.60;;;;;;;2.57;85.70;98950.94;103884;1299;24400;-25
2022/01/28 06:27:15;;;;;;;4.00;0.90;;;;;;;2.64;85.53;98954.15;103869;1297;24234;-29
2022/01/28 06:29:40;;;;;;;6.40;2.80;;;;;;;2.67;84.43;98951.15;103854;1297;24181;-29
2022/01/28 06:32:06;;;;;;;8.60;1.30;;;;;;;2.66;85.03;98960.13;103878;1297;24222;-24
2022/01/28 06:34:33;;;;;;;11.10;0.70;;;;;;;2.50;85.72;98956.45;103854;1297;24273;-24
2022/01/28 06:36:59;;;;;;;4.10;0.60;;;;;;;2.53;85.84;98958.45;103851;1299;24269;-29
2022/01/28 06:39:25;;;;;;;9.40;2.20;;;;;;;2.57;85.90;98962.64;103941;1297;24174;-24
2022/01/28 06:41:51;;;;;;;11.40;0.80;;;;;;;2.39;86.00;98974.66;103864;1297;24194;-24
2022/01/28 06:44:16;;;;;;;3.80;0.50;;;;;;;2.22;87.61;98974.77;103658;1298;24225;-26
2022/01/28 06:46:42;;;;;;;9.50;2.70;;;;;;;2.35;87.07;98979.73;103874;1297;24299;-25
2022/01/28 06:49:07;;;;;;;8.10;1.60;;;;;;;2.58;86.02;98981.91;103864;1299;24374;-29
2022/01/28 06:51:34;;;;;;;3.70;1.50;;;;;;;2.61;85.44;98980.58;103938;1297;24439;-24
2022/01/28 06:54:01;;;;;;;23.00;2.20;;;;;;;2.58;85.68;98977.52;103881;1297;24387;-24
2022/01/28 06:56:27;;;;;;;11.60;2.30;;;;;;;2.50;85.64;98990.40;103841;1299;22509;-24
2022/01/28 06:58:53;;;;;;;8.50;2.90;;;;;;;2.44;86.43;98999.28;103858;1299;24249;-29
2022/01/28 07:01:18;;;;;;;14.60;2.90;;;;;;;2.57;85.79;99001.30;103833;1297;24170;-30
2022/01/28 07:03:44;;;;;;;9.50;2.00;;;;;;;2.60;85.30;99001.58;103898;1297;24259;-29
2022/01/28 07:06:10;;;;;;;4.10;1.10;;;;;;;2.41;86.25;99001.38;103897;1298;24235;-30
2022/01/28 07:08:35;;;;;;;3.20;1.60;;;;;;;2.36;87.12;99009.63;103811;1296;24180;-25
2022/01/28 07:11:01;;;;;;;4.10;1.20;;;;;;;2.33;87.22;99009.00;103970;1299;24343;-24
2022/01/28 07:13:27;;;;;;;8.20;2.80;;;;;;;2.52;86.33;98994.38;103844;1299;24341;-29
2022/01/28 07:15:53;;;;;;;8.90;2.20;;;;;;;2.58;85.93;99016.65;103899;1297;24199;-24
2022/01/28 07:18:18;;;;;;;13.60;2.60;;;;;;;2.48;86.40;99020.91;103829;1297;24211;-29
2022/01/28 07:20:44;;;;;;;7.50;2.00;;;;;;;2.54;85.89;99007.44;103871;1299;24229;-30
2022/01/28 07:23:10;;;;;;;11.90;1.30;;;;;;;2.67;84.69;99014.45;103932;1297;24220;-29
2022/01/28 07:25:35;;;;;;;6.90;2.40;;;;;;;2.45;86.11;99017.02;103887;1299;24236;-24
2022/01/28 07:28:01;;;;;;;10.20;2.00;;;;;;;2.65;84.97;99024.58;103882;1299;24186;-24
2022/01/28 07:30:27;;;;;;;11.80;2.20;;;;;;;2.51;85.18;99028.95;103909;1299;24208;-30
2022/01/28 07:32:53;;;;;;;6.90;1.00;;;;;;;2.36;86.18;99024.27;103820;1299;24300;-24
2022/01/28 07:35:19;;;;;;;14.20;2.80;;;;;;;2.36;87.03;99041.63;103644;1299;24218;-24
2022/01/28 07:37:44;;;;;;;8.70;2.30;;;;;;;2.37;86.52;99020.46;103929;1297;24205;-31
2022/01/28 07:40:11;;;;;;;10.30;1.70;;;;;;;2.06;88.42;99050.20;103926;1297;24284;-27
2022/01/28 07:42:37;;;;;;;9.20;2.20;;;;;;;2.17;88.07;99043.45;103980;1297;24257;-30
2022/01/28 07:45:04;;;;;;;7.40;1.00;;;;;;;2.02;89.06;99053.29;103860;1297;24204;-24
2022/01/28 07:47:30;;;;;;;14.60;3.00;;;;;;;1.97;89.68;99060.44;103875;1299;24315;-30
2022/01/28 07:49:56;;;;;;;24.00;3.50;;;;;;;1.99;88.96;99071.18;103907;1299;24245;-31
2022/01/28 07:52:22;;;;;;;11.90;1.00;;;;;;;1.75;90.09;99076.00;103870;1297;22521;-24
2022/01/28 07:54:49;;;;;;;5.60;1.20;;;;;;;1.94;89.98;99086.52;103884;1296;22509;-26
2022/01/28 07:57:16;;;;;;;6.80;2.90;;;;;;;1.64;91.64;99083.23;103862;1297;24315;-25
2022/01/28 07:59:41;;;;;;;16.80;1.70;;;;;;;1.78;91.11;99088.99;103967;1297;24328;-30
2022/01/28 08:02:07;;;;;;;5.20;2.30;;;;;;;1.89;91.33;99083.33;103822;1299;22731;-24
2022/01/28 08:04:33;;;;;;;3.30;1.30;;;;;;;1.96;90.99;99090.09;103924;1297;24195;-26
2022/01/28 08:06:59;;;;;;;8.50;2.50;;;;;;;1.90;91.26;99101.10;103945;1297;24136;-25
2022/01/28 08:09:24;;;;;;;13.10;3.40;;;;;;;2.03;90.93;99112.48;103926;1297;26154;-24
2022/01/28 08:11:50;;;;;;;13.30;3.30;;;;;;;2.11;90.52;99112.23;103862;1297;22875;-24
2022/01/28 08:14:16;;;;;;;9.30;1.90;;;;;;;1.89;91.51;99123.38;103804;1297;24349;-24
2022/01/28 08:16:41;;;;;;;16.20;3.10;;;;;;;2.23;90.53;99128.02;103857;1297;24338;-24
2022/01/28 08:19:07;;;;;;;9.30;1.60;;;;;;;2.00;91.51;99131.19;103972;1297;22710;-30
2022/01/28 08:21:32;;;;;;;3.80;1.20;;;;;;;2.06;91.73;99128.23;103923;1299;24231;-24
2022/01/28 08:23:58;;;;;;;7.60;2.50;;;;;;;2.25;90.60;99145.73;103887;1297;24368;-24
2022/01/28 08:26:24;;;;;;;4.40;1.70;;;;;;;2.19;90.58;99141.30;103874;1299;24255;-29
2022/01/28 08:28:50;;;;;;;6.10;1.80;;;;;;;2.22;90.84;99151.31;103912;1297;24211;-26
2022/01/28 08:31:16;;;;;;;9.80;1.20;;;;;;;2.12;91.45;99150.14;103921;1297;24222;-31
2022/01/28 08:33:41;;;;;;;9.90;3.30;;;;;;;2.03;92.56;99149.59;103714;1297;24457;-30
2022/01/28 08:36:07;;;;;;;10.60;3.80;;;;;;;2.11;91.85;99163.27;103855;1297;24218;-25
2022/01/28 08:41:02;;;;;;;14.10;3.40;;;;;;;2.28;91.02;99164.61;103899;1297;24336;-31
2022/01/28 08:43:29;;;;;;;3.90;1.30;;;;;;;2.05;92.02;99170.58;103874;1297;24323;-29
2022/01/28 08:45:55;;;;;;;8.30;2.70;;;;;;;1.97;92.36;99169.25;103937;1297;25355;-30
2022/01/28 08:48:20;;;;;;;20.90;2.70;;;;;;;1.91;93.64;99171.09;103895;1299;24348;-25
2022/01/28 08:50:46;;;;;;;13.00;2.70;;;;;;;2.05;93.39;99182.04;103935;1299;24183;-33
2022/01/28 08:53:12;;;;;;;15.60;4.40;;;;;;;1.94;93.33;99188.23;104013;1297;24312;-30
2022/01/28 08:55:38;;;;;;;15.20;1.20;;;;;;;2.14;93.58;99193.59;103972;1299;22512;-24
2022/01/28 08:58:05;;;;;;;10.40;2.10;;;;;;;2.23;92.49;99203.33;103924;1299;24339;-30
2022/01/28 09:00:31;;;;;;;12.10;1.40;;;;;;;1.98;93.21;99205.35;103842;1299;25893;-24
2022/01/28 09:02:57;;;;;;;4.40;1.00;;;;;;;1.77;94.95;99213.68;103943;1297;24328;-24
2022/01/28 09:05:22;;;;;;;4.70;0.80;;;;;;;1.73;95.17;99216.88;103872;1297;24241;-24
2022/01/28 09:07:48;;;;;;;26.20;2.80;;;;;;;1.54;96.64;99227.88;103847;1297;24462;-30
2022/01/28 09:10:18;;;;;;;2.70;0.50;;;;;;;1.47;98.32;99225.33;103879;1297;24159;-25
2022/01/28 09:12:49;;;;;;;7.50;2.00;;;;;;;1.58;97.71;99234.02;103899;1297;24206;-31
2022/01/28 09:15:16;;;;;;;8.10;2.70;;;;;;;1.54;98.01;99249.02;103918;1299;23829;-24
2022/01/28 09:17:41;;;;;;;20.80;2.20;;;;;;;1.64;97.76;99258.80;103884;1299;24215;-24
2022/01/28 09:20:08;;;;;;;15.00;3.20;;;;;;;1.70;97.07;99264.09;103805;1297;24194;-27
2022/01/28 09:22:33;;;;;;;29.60;2.20;;;;;;;1.67;97.04;99268.42;103965;1297;24319;-23
2022/01/28 09:24:59;;;;;;;6.30;2.40;;;;;;;1.38;98.11;99266.77;103960;1297;22888;-24
2022/01/28 09:27:25;;;;;;;14.80;5.40;;;;;;;1.30;99.47;99281.07;103723;1298;24291;-30
2022/01/28 09:29:51;;;;;;;5.10;2.30;;;;;;;1.47;98.39;99280.41;103935;1297;24372;-30
2022/01/28 09:32:16;;;;;;;16.50;5.10;;;;;;;1.31;98.56;99297.25;103909;1299;24170;-25
2022/01/28 09:34:43;;;;;;;17.30;8.90;;;;;;;1.39;99.00;99284.98;103737;1297;24262;-26
2022/01/28 09:37:12;;;;;;;31.90;9.80;;;;;;;1.63;97.80;99290.86;103840;1297;24270;-32
2022/01/28 09:39:43;;;;;;;21.70;5.90;;;;;;;1.39;98.89;99286.07;103839;1299;24223;-30
2022/01/28 09:42:13;;;;;;;10.70;6.10;;;;;;;1.40;98.70;99282.23;103892;1297;24132;-30
2022/01/28 09:44:38;;;;;;;16.70;4.50;;;;;;;1.39;99.43;99299.61;103930;1297;24308;-30
2022/01/28 09:47:04;;;;;;;44.60;14.20;;;;;;;1.40;99.81;99305.16;103853;1297;24214;-30
2022/01/28 09:49:30;;;;;;;20.40;5.30;;;;;;;1.77;98.33;99304.08;103903;1299;24217;-30
2022/01/28 09:51:56;;;;;;;20.50;6.80;;;;;;;1.70;97.49;99299.78;103885;1299;24287;-24
2022/01/28 09:54:22;;;;;;;28.50;5.60;;;;;;;1.68;98.47;99309.30;103868;1299;24245;-30
2022/01/28 09:56:47;;;;;;;27.60;11.50;;;;;;;1.67;98.39;99306.58;103888;1297;24209;-24
2022/01/28 09:59:13;;;;;;;19.90;6.90;;;;;;;1.45;99.41;99307.91;103907;1297;22908;-24
2022/01/28 10:01:46;;;;;;;16.10;4.90;;;;;;;1.57;99.38;99303.83;103661;1298;22739;-27
2022/01/28 10:04:13;;;;;;;25.50;7.00;;;;;;;1.73;98.70;99317.63;103890;1297;24991;-25
2022/01/28 10:06:39;;;;;;;26.50;8.40;;;;;;;2.12;96.93;99325.53;103851;1297;24231;-30
2022/01/28 10:09:08;;;;;;;10.00;4.80;;;;;;;2.04;96.19;99322.77;103916;1299;22512;-24
2022/01/28 10:11:35;;;;;;;9.60;2.10;;;;;;;1.98;96.98;99321.19;103932;1297;24218;-23
2022/01/28 10:14:08;;;;;;;19.90;8.20;;;;;;;1.86;97.42;99333.39;103734;1298;22843;-30
2022/01/28 10:16:34;;;;;;;7.80;2.10;;;;;;;1.92;97.01;99333.23;103910;1299;24255;-25
2022/01/28 10:19:04;;;;;;;10.00;2.20;;;;;;;1.91;97.21;99337.38;103870;1298;24213;-24
2022/01/28 10:21:36;;;;;;;18.10;3.70;;;;;;;1.84;97.13;99337.14;103959;1298;22998;-30
2022/01/28 10:24:09;;;;;;;12.00;3.50;;;;;;;1.98;96.44;99339.54;103958;1299;23830;-30
2022/01/28 10:26:41;;;;;;;29.70;3.40;;;;;;;1.88;97.41;99339.79;103934;1299;24230;-30
2022/01/28 10:29:11;;;;;;;4.60;1.90;;;;;;;1.88;98.03;99347.69;103896;1299;22643;-24
2022/01/28 10:31:39;;;;;;;23.30;5.80;;;;;;;1.95;97.13;99336.81;103903;1299;25393;-24
2022/01/28 10:34:10;;;;;;;27.80;7.70;;;;;;;1.78;97.46;99333.95;103929;1298;23992;-29
2022/01/28 10:36:37;;;;;;;30.40;6.60;;;;;;;1.88;97.64;99340.79;103916;1297;24378;-26
2022/01/28 10:39:03;;;;;;;10.90;4.40;;;;;;;1.98;96.78;99347.48;103887;1297;24260;-25
2022/01/28 10:41:29;;;;;;;22.40;5.70;;;;;;;2.10;96.37;99362.40;103860;1297;22611;-30
2022/01/28 10:43:56;;;;;;;8.60;2.10;;;;;;;2.01;96.88;99354.84;103863;1297;24663;-28
2022/01/28 10:46:27;;;;;;;21.70;6.90;;;;;;;2.09;96.49;99351.41;103921;1299;24213;-30
2022/01/28 10:48:54;;;;;;;8.00;1.90;;;;;;;2.05;95.94;99356.94;103922;1297;24405;-24
2022/01/28 10:51:22;;;;;;;8.10;2.20;;;;;;;2.02;96.94;99366.48;103637;1298;24375;-30
2022/01/28 10:53:54;;;;;;;12.20;3.00;;;;;;;1.83;97.38;99369.53;103936;1299;24221;-25
2022/01/28 10:56:20;;;;;;;16.40;1.50;;;;;;;1.90;97.73;99366.46;103901;1297;24328;-30
2022/01/28 10:58:46;;;;;;;9.40;1.10;;;;;;;1.89;97.58;99373.52;103878;1299;24257;-29
2022/01/28 11:01:13;;;;;;;6.90;1.70;;;;;;;1.99;97.42;99374.05;103899;1297;24448;-30
2022/01/28 11:03:40;;;;;;;4.10;1.10;;;;;;;2.11;96.53;99374.73;103910;1299;24391;-24
2022/01/28 11:06:06;;;;;;;5.90;0.80;;;;;;;1.99;97.24;99368.42;103830;1299;24296;-32
2022/01/28 11:08:32;;;;;;;5.30;1.30;;;;;;;2.18;96.15;99372.11;103898;1299;24296;-30
2022/01/28 11:10:59;;;;;;;10.30;1.80;;;;;;;2.10;96.75;99388.33;103937;1297;22903;-30
2022/01/28 11:13:25;;;;;;;4.60;1.10;;;;;;;2.16;97.15;99386.46;104024;1299;24222;-32
2022/01/28 11:15:51;;;;;;;5.80;1.80;;;;;;;2.24;96.55;99394.23;103855;1299;24373;-26
2022/01/28 11:18:18;;;;;;;7.90;1.20;;;;;;;2.45;94.71;99391.69;103886;1299;24175;-24
2022/01/28 11:20:49;;;;;;;9.20;2.80;;;;;;;2.29;95.40;99395.08;103905;1297;24173;-25
2022/01/28 11:23:20;;;;;;;8.00;1.60;;;;;;;2.37;95.30;99401.41;103886;1299;24362;-26
2022/01/28 11:25:53;;;;;;;6.90;1.70;;;;;;;2.43;94.67;99403.84;103922;1299;24416;-24
2022/01/28 11:28:18;;;;;;;5.30;1.20;;;;;;;2.43;94.88;99400.86;103987;1296;25482;-30
2022/01/28 11:30:46;;;;;;;6.80;1.40;;;;;;;2.32;95.56;99406.24;103909;1297;24212;-24
2022/01/28 11:33:12;;;;;;;2.60;1.10;;;;;;;2.25;96.15;99407.89;103840;1297;23922;-30
2022/01/28 11:35:39;;;;;;;10.50;1.50;;;;;;;2.49;95.14;99399.73;103887;1297;24214;-25
2022/01/28 11:38:25;;;;;;;21.20;3.60;;;;;;;2.45;94.36;99414.05;103880;1299;24169;-31
2022/01/28 11:40:52;;;;;;;8.00;1.60;;;;;;;2.54;94.01;99420.69;103954;1297;22848;-31
2022/01/28 11:43:20;;;;;;;9.50;1.60;;;;;;;2.28;94.85;99425.09;103667;1298;22512;-25
2022/01/28 11:45:46;;;;;;;10.20;2.20;;;;;;;2.30;95.16;99434.23;103938;1299;22795;-25
2022/01/28 11:48:12;;;;;;;45.50;3.40;;;;;;;2.20;95.30;99440.62;103922;1297;24215;-26
2022/01/28 11:50:38;;;;;;;14.10;3.30;;;;;;;2.26;94.61;99423.50;103650;1297;24196;-30
2022/01/28 11:53:19;;;;;;;13.50;2.80;;;;;;;2.26;94.66;99436.16;103890;1299;24345;-25
2022/01/28 11:55:45;;;;;;;10.70;1.80;;;;;;;2.40;93.87;99432.20;103672;1298;24182;-24
2022/01/28 11:58:12;;;;;;;7.90;3.30;;;;;;;2.29;94.00;99431.70;103893;1296;22520;-30
2022/01/28 12:00:39;;;;;;;7.10;1.10;;;;;;;2.33;93.81;99436.83;104030;1299;22728;-30
2022/01/28 12:03:12;;;;;;;12.60;2.10;;;;;;;2.29;94.02;99448.10;103884;1297;24231;-24
2022/01/28 12:05:56;;;;;;;7.30;1.70;;;;;;;2.34;94.11;99435.12;103891;1299;24139;-30
2022/01/28 12:08:22;;;;;;;3.30;1.20;;;;;;;2.34;93.48;99440.92;103903;1299;24090;-26
2022/01/28 12:10:50;;;;;;;8.60;1.10;;;;;;;2.37;93.57;99435.55;103655;1299;477767;-32
2022/01/28 12:13:17;;;;;;;7.30;2.20;;;;;;;2.61;92.54;99430.05;103662;1298;24163;-30
2022/01/28 12:15:56;;;;;;;8.20;1.50;;;;;;;2.57;91.82;99443.55;103964;1299;24411;-30
2022/01/28 12:18:23;;;;;;;12.50;2.90;;;;;;;2.59;91.93;99446.15;103879;1297;24205;-30
2022/01/28 12:20:49;;;;;;;4.40;2.20;;;;;;;2.58;91.43;99454.26;103896;1299;24301;-30
2022/01/28 12:23:16;;;;;;;13.50;1.10;;;;;;;2.76;90.48;99451.96;103646;1299;24233;-29
2022/01/28 12:25:42;;;;;;;5.30;1.30;;;;;;;2.67;90.19;99463.94;103997;1297;24328;-24
2022/01/28 12:28:11;;;;;;;9.00;2.70;;;;;;;2.59;90.57;99461.90;103873;1297;24274;-26
2022/01/28 12:30:37;;;;;;;6.00;2.80;;;;;;;2.48;91.08;99481.31;104118;1297;24250;-29
2022/01/28 12:33:03;;;;;;;4.70;1.70;;;;;;;2.41;91.20;99477.88;103986;1299;24171;-24
2022/01/28 12:35:29;;;;;;;16.50;2.70;;;;;;;2.55;90.60;99474.27;103896;1299;24329;-25
2022/01/28 12:38:00;;;;;;;7.00;3.20;;;;;;;2.62;90.16;99485.67;103852;1297;23082;-29
2022/01/28 12:40:29;;;;;;;6.00;2.30;;;;;;;2.61;89.36;99487.67;103772;1299;24256;-26
2022/01/28 12:42:55;;;;;;;12.10;2.00;;;;;;;2.69;89.13;99484.52;103766;1299;22642;-26
2022/01/28 12:45:21;;;;;;;13.00;2.50;;;;;;;2.64;88.98;99483.33;103745;1299;24253;-29
2022/01/28 12:47:46;;;;;;;6.40;1.60;;;;;;;2.66;89.00;99491.29;103898;1299;24202;-24
2022/01/28 12:50:12;;;;;;;19.10;1.70;;;;;;;2.69;88.71;99498.08;103897;1297;22508;-24
2022/01/28 12:52:38;;;;;;;13.70;1.40;;;;;;;2.68;88.28;99500.13;103883;1299;24418;-30
2022/01/28 12:55:04;;;;;;;7.30;2.10;;;;;;;2.68;88.43;99505.09;103925;1299;22607;-30
2022/01/28 12:57:30;;;;;;;5.60;2.20;;;;;;;2.75;88.14;99497.86;103843;1299;24252;-29
2022/01/28 12:59:56;;;;;;;14.70;3.10;;;;;;;2.76;88.02;99501.98;103773;1297;24313;-24